Terminal Aerodrome Forecast
Issued by NWS Charleston, WV

Current Version | Previous Version | Graphics & Text | Print | Product List | Glossary On
Versions: 1 2 3 4 5 6 7 8 9 10 11 12 13 14 15 16 17 18 19 20 21 22 23 24 25
000
FTUS41 KRLX 220900 AAA
TAFEKN
TAF AMD
KEKN 220917Z 2209/2306 00000KT 5SM SHRA BR SCT015 OVC030
      TEMPO 2209/2211 1SM +TSRA BR BKN010 OVC030CB
     FM221200 00000KT 5SM BR BKN010
     FM221400 VRB03KT P6SM BKN020
     FM221700 27004KT 5SM SHRA BR VCTS BKN020CB
     FM230100 00000KT 4SM BR BKN025=

USA.gov is the U.S. government's official web portal to all federal, state and local government web resources and services.